createdAt,value
2023-02-08T00:02:21.851Z,100291.66
2023-02-08T00:05:24.654Z,100296.81
2023-02-08T00:08:27.247Z,100300.25
2023-02-08T00:11:30.085Z,100304.66
2023-02-08T00:14:32.628Z,100303.06
2023-02-08T00:17:35.189Z,100306.31
2023-02-08T00:20:42.725Z,100308.03
2023-02-08T00:23:46.586Z,100303.97
2023-02-08T00:26:49.104Z,100300.66
2023-02-08T00:29:51.688Z,100305.31
2023-02-08T00:32:54.431Z,100293.28
2023-02-08T00:36:05.624Z,100289.72
2023-02-08T00:39:08.257Z,100303.44
2023-02-08T00:42:10.997Z,100305.16
2023-02-08T00:45:15.227Z,100305.78
2023-02-08T00:48:19.907Z,100293.84
2023-02-08T00:51:22.814Z,100296.38
2023-02-08T00:54:25.587Z,100297.16
2023-02-08T00:57:28.101Z,100286.59
2023-02-08T01:00:30.749Z,100282.56
2023-02-08T01:03:34.856Z,100276.66
2023-02-08T01:06:39.996Z,100275.81
2023-02-08T01:09:42.689Z,100280.75
2023-02-08T01:12:45.320Z,100280.88
2023-02-08T01:15:48.026Z,100275.78
2023-02-08T01:18:52.486Z,100286.09
2023-02-08T01:21:55.231Z,100284.47
2023-02-08T01:25:01.358Z,100285.03
2023-02-08T01:28:05.586Z,100287.19
2023-02-08T01:31:10.060Z,100293.25
2023-02-08T01:34:15.427Z,100287.59
2023-02-08T01:37:19.070Z,100279.13
2023-02-08T01:40:23.098Z,100277.50
2023-02-08T01:43:28.266Z,100286.94
2023-02-08T01:46:32.146Z,100298.69
2023-02-08T01:49:36.732Z,100293.31
2023-02-08T01:52:39.380Z,100303.50
2023-02-08T01:55:47.211Z,100297.47
2023-02-08T01:58:53.540Z,100291.56
2023-02-08T02:01:58.778Z,100293.97
2023-02-08T02:05:03.355Z,100293.03
2023-02-08T02:08:07.076Z,100292.91
2023-02-08T02:11:09.631Z,100299.69
2023-02-08T02:14:13.083Z,100298.06
2023-02-08T02:17:17.719Z,100296.38
2023-02-08T02:20:33.355Z,100297.47
2023-02-08T02:23:53.002Z,100291.66
2023-02-08T02:27:14.480Z,100302.63
2023-02-08T02:30:47.686Z,100311.19
2023-02-08T02:34:05.752Z,100308.50
2023-02-08T02:37:08.241Z,100302.56
2023-02-08T02:40:31.041Z,100307.66
2023-02-08T02:43:49.049Z,100307.28
2023-02-08T02:47:01.429Z,100307.16
2023-02-08T02:50:25.422Z,100320.91
2023-02-08T02:53:36.100Z,100325.44
2023-02-08T02:56:45.182Z,100331.44
2023-02-08T02:59:47.952Z,100326.91
2023-02-08T03:02:50.597Z,100326.16
2023-02-08T03:05:57.387Z,100329.59
2023-02-08T03:09:41.886Z,100346.00
2023-02-08T03:12:49.844Z,100341.75
2023-02-08T03:16:13.995Z,100337.91
2023-02-08T03:19:23.332Z,100352.09
2023-02-08T03:22:44.498Z,100349.53
2023-02-08T03:25:51.170Z,100343.41
2023-02-08T03:29:19.653Z,100359.47
2023-02-08T03:32:25.619Z,100346.88
2023-02-08T03:35:37.024Z,100347.97
2023-02-08T03:38:42.363Z,100345.53
2023-02-08T03:41:46.915Z,100358.13
2023-02-08T03:44:57.531Z,100353.03
2023-02-08T03:48:04.261Z,100363.06
2023-02-08T03:51:07.690Z,100364.78
2023-02-08T03:54:21.090Z,100361.72
2023-02-08T03:57:30.002Z,100370.00
2023-02-08T04:00:36.700Z,100364.78
2023-02-08T04:03:39.663Z,100368.31
2023-02-08T04:06:42.613Z,100369.97
2023-02-08T04:09:45.653Z,100374.91
2023-02-08T04:12:49.212Z,100363.78
2023-02-08T04:15:51.722Z,100376.28
2023-02-08T04:18:54.300Z,100371.75
2023-02-08T04:21:56.912Z,100361.75
2023-02-08T04:25:00.149Z,100354.31
2023-02-08T04:28:02.727Z,100357.03
2023-02-08T04:31:05.514Z,100354.13
2023-02-08T04:34:08.256Z,100348.84
2023-02-08T04:37:11.341Z,100357.16
2023-02-08T04:40:13.923Z,100354.09
2023-02-08T04:43:16.675Z,100361.56
2023-02-08T04:46:19.413Z,100362.56
2023-02-08T04:49:22.130Z,100368.69
2023-02-08T04:52:24.731Z,100373.16
2023-02-08T04:55:27.412Z,100364.84
2023-02-08T04:58:29.972Z,100372.47
2023-02-08T05:01:32.774Z,100364.13
2023-02-08T05:04:35.848Z,100357.38
2023-02-08T05:07:38.765Z,100355.78
2023-02-08T05:10:45.531Z,100369.00
2023-02-08T05:13:48.633Z,100373.03
2023-02-08T05:16:51.286Z,100374.50
2023-02-08T05:19:54.023Z,100369.44
2023-02-08T05:22:56.576Z,100365.19
2023-02-08T05:25:59.731Z,100363.34
2023-02-08T05:29:02.338Z,100366.03
2023-02-08T05:32:05.046Z,100373.59
2023-02-08T05:35:07.854Z,100369.53
2023-02-08T05:38:10.418Z,100376.81
2023-02-08T05:41:12.967Z,100375.00
2023-02-08T05:44:15.704Z,100380.31
2023-02-08T05:47:18.501Z,100385.97
2023-02-08T05:50:21.200Z,100382.16
2023-02-08T05:53:27.306Z,100377.28
2023-02-08T05:56:30.277Z,100378.22
2023-02-08T05:59:32.842Z,100393.22
2023-02-08T06:02:35.705Z,100395.06
2023-02-08T06:05:39.923Z,100407.81
2023-02-08T06:08:42.665Z,100413.59
2023-02-08T06:11:45.277Z,100417.56
2023-02-08T06:14:47.854Z,100432.03
2023-02-08T06:17:51.082Z,100421.41
2023-02-08T06:20:54.687Z,100414.16
2023-02-08T06:23:57.637Z,100417.81
2023-02-08T06:27:00.222Z,100437.59
2023-02-08T06:30:03.363Z,100429.19
2023-02-08T06:33:06.241Z,100421.16
2023-02-08T06:36:09.374Z,100428.09
2023-02-08T06:39:13.111Z,100423.28
2023-02-08T06:42:15.748Z,100414.47
2023-02-08T06:45:18.972Z,100419.72
2023-02-08T06:48:21.566Z,100413.66
2023-02-08T06:51:24.484Z,100407.69
2023-02-08T06:54:27.088Z,100410.88
2023-02-08T06:57:32.426Z,100408.75
2023-02-08T07:00:35.100Z,100412.38
2023-02-08T07:03:37.633Z,100416.78
2023-02-08T07:06:40.368Z,100416.03
2023-02-08T07:09:43.684Z,100415.19
2023-02-08T07:12:48.423Z,100421.09
2023-02-08T07:15:51.571Z,100427.81
2023-02-08T07:18:54.285Z,100436.06
2023-02-08T07:21:57.511Z,100437.78
2023-02-08T07:25:00.496Z,100439.91
2023-02-08T07:28:03.225Z,100452.13
2023-02-08T07:31:10.982Z,100448.13
2023-02-08T07:34:13.582Z,100449.13
2023-02-08T07:37:16.943Z,100454.47
2023-02-08T07:40:19.610Z,100449.56
2023-02-08T07:43:22.132Z,100452.94
2023-02-08T07:46:32.816Z,100455.38
2023-02-08T07:49:35.782Z,100455.38
2023-02-08T07:52:38.998Z,100452.91
2023-02-08T07:55:41.616Z,100452.25
2023-02-08T07:58:44.160Z,100449.81
2023-02-08T08:01:46.888Z,100443.72
2023-02-08T08:04:49.793Z,100451.28
2023-02-08T08:07:52.349Z,100446.09
2023-02-08T08:10:55.013Z,100450.34
2023-02-08T08:13:57.579Z,100450.88
2023-02-08T08:17:00.456Z,100449.00
2023-02-08T08:20:03.349Z,100457.59
2023-02-08T08:23:05.981Z,100460.00
2023-02-08T08:26:15.470Z,100462.44
2023-02-08T08:29:18.281Z,100473.63
2023-02-08T08:32:20.942Z,100488.50
2023-02-08T08:35:23.477Z,100484.03
2023-02-08T08:38:26.106Z,100485.38
2023-02-08T08:41:28.842Z,100488.59
2023-02-08T08:44:31.909Z,100484.41
2023-02-08T08:47:34.725Z,100482.69
2023-02-08T08:50:37.463Z,100492.66
2023-02-08T08:53:40.176Z,100492.41
2023-02-08T08:56:43.135Z,100495.72
2023-02-08T08:59:45.760Z,100490.56
2023-02-08T09:02:48.293Z,100503.09
2023-02-08T09:05:51.785Z,100505.41
2023-02-08T09:08:54.346Z,100496.66
2023-02-08T09:11:57.041Z,100501.59
2023-02-08T09:14:59.877Z,100497.78
2023-02-08T09:18:02.716Z,100497.53
2023-02-08T09:21:14.381Z,100502.47
2023-02-08T09:24:17.262Z,100498.78
2023-02-08T09:27:19.960Z,100500.31
2023-02-08T09:30:22.643Z,100500.34
2023-02-08T09:33:25.283Z,100503.75
2023-02-08T09:36:33.056Z,100500.38
2023-02-08T09:39:36.022Z,100505.13
2023-02-08T09:42:45.016Z,100502.75
2023-02-08T09:45:59.893Z,100505.00
2023-02-08T09:49:05.732Z,100506.34
2023-02-08T09:52:14.034Z,100513.16
2023-02-08T09:55:36.475Z,100515.75
2023-02-08T09:58:45.516Z,100503.59
2023-02-08T10:01:49.889Z,100514.53
2023-02-08T10:05:00.204Z,100509.31
2023-02-08T10:08:03.085Z,100509.66
2023-02-08T10:11:27.655Z,100515.28
2023-02-08T10:14:51.573Z,100506.56
2023-02-08T10:18:24.687Z,100514.69
2023-02-08T10:21:37.900Z,100508.72
2023-02-08T10:25:18.355Z,100506.91
2023-02-08T10:28:58.510Z,100498.09
2023-02-08T10:32:35.547Z,100490.25
2023-02-08T10:35:41.755Z,100503.72
2023-02-08T10:38:46.982Z,100495.94
2023-02-08T10:41:51.611Z,100501.84
2023-02-08T10:45:24.355Z,100496.63
2023-02-08T10:48:54.713Z,100493.53
2023-02-08T10:51:57.348Z,100487.13
2023-02-08T10:55:00.203Z,100493.88
2023-02-08T10:58:05.382Z,100487.00
2023-02-08T11:01:08.989Z,100495.44
2023-02-08T11:04:13.416Z,100491.44
2023-02-08T11:07:21.620Z,100485.53
2023-02-08T11:10:25.911Z,100480.63
2023-02-08T11:13:51.710Z,100485.63
2023-02-08T11:16:56.496Z,100490.63
2023-02-08T11:20:00.257Z,100489.66
2023-02-08T11:23:18.240Z,100493.06
2023-02-08T11:26:23.811Z,100486.28
2023-02-08T11:29:29.937Z,100481.75
2023-02-08T11:32:33.382Z,100476.13
2023-02-08T11:35:36.364Z,100481.38
2023-02-08T11:38:42.140Z,100485.44
2023-02-08T11:41:46.801Z,100477.44
2023-02-08T11:44:49.901Z,100476.59
2023-02-08T11:47:52.990Z,100467.94
2023-02-08T11:51:00.999Z,100467.22
2023-02-08T11:54:04.885Z,100467.03
2023-02-08T11:57:19.561Z,100469.19
2023-02-08T12:00:31.264Z,100469.41
2023-02-08T12:03:38.469Z,100465.00
2023-02-08T12:06:50.193Z,100463.16
2023-02-08T12:10:13.858Z,100463.44
2023-02-08T12:13:25.801Z,100463.28
2023-02-08T12:16:51.618Z,100466.47
2023-02-08T12:20:16.179Z,100452.19
2023-02-08T12:23:43.401Z,100448.41
2023-02-08T12:26:52.141Z,100450.13
2023-02-08T12:30:14.952Z,100456.44
2023-02-08T12:33:39.287Z,100448.56
2023-02-08T12:37:26.585Z,100436.41
2023-02-08T12:40:56.133Z,100443.47
2023-02-08T12:44:10.869Z,100442.31
2023-02-08T12:48:05.075Z,100437.13
2023-02-08T12:51:29.842Z,100427.38
2023-02-08T12:54:36.968Z,100431.81
2023-02-08T12:57:42.633Z,100425.22
2023-02-08T13:00:45.754Z,100436.66
2023-02-08T13:03:54.547Z,100434.91
2023-02-08T13:07:00.091Z,100423.84
2023-02-08T13:10:12.679Z,100434.59
2023-02-08T13:13:24.407Z,100425.59
2023-02-08T13:16:31.579Z,100429.53
2023-02-08T13:19:59.643Z,100429.91
2023-02-08T13:23:24.291Z,100425.88
2023-02-08T13:26:31.746Z,100423.47
2023-02-08T13:29:36.685Z,100416.53
2023-02-08T13:32:44.212Z,100423.38
2023-02-08T13:35:52.085Z,100413.19
2023-02-08T13:38:55.560Z,100417.00
2023-02-08T13:41:58.364Z,100408.34
2023-02-08T13:45:01.807Z,100401.25
2023-02-08T13:48:07.597Z,100402.88
2023-02-08T13:51:29.165Z,100404.31
2023-02-08T13:54:31.954Z,100392.69
2023-02-08T13:58:15.644Z,100403.78
2023-02-08T14:01:23.457Z,100393.06
2023-02-08T14:04:37.264Z,100389.13
2023-02-08T14:07:43.942Z,100386.25
2023-02-08T14:11:09.817Z,100394.22
2023-02-08T14:14:28.782Z,100394.66
2023-02-08T14:17:31.556Z,100385.66
2023-02-08T14:20:40.349Z,100382.13
2023-02-08T14:23:43.122Z,100385.28
2023-02-08T14:26:46.473Z,100393.34
2023-02-08T14:30:18.169Z,100387.19
2023-02-08T14:33:36.305Z,100384.16
2023-02-08T14:36:39.461Z,100384.53
2023-02-08T14:39:42.449Z,100394.63
2023-02-08T14:43:01.932Z,100383.81
2023-02-08T14:46:42.503Z,100383.84
2023-02-08T14:49:45.802Z,100390.78
2023-02-08T14:53:23.999Z,100383.38
2023-02-08T14:56:30.241Z,100379.91
2023-02-08T14:59:35.026Z,100380.81
2023-02-08T15:02:41.643Z,100376.31
2023-02-08T15:06:09.297Z,100375.00
2023-02-08T15:09:18.243Z,100393.72
2023-02-08T15:12:30.945Z,100387.41
2023-02-08T15:15:37.120Z,100397.69
2023-02-08T15:18:39.911Z,100393.63
2023-02-08T15:21:42.584Z,100389.50
2023-02-08T15:24:54.021Z,100395.03
2023-02-08T15:28:00.203Z,100390.91
2023-02-08T15:31:06.334Z,100395.47
2023-02-08T15:34:11.185Z,100395.59
2023-02-08T15:37:18.176Z,100404.53
2023-02-08T15:40:35.837Z,100405.63
2023-02-08T15:43:40.398Z,100404.69
2023-02-08T15:46:44.169Z,100398.28
2023-02-08T15:49:50.958Z,100410.44
2023-02-08T15:53:01.913Z,100410.78
2023-02-08T15:56:05.378Z,100405.88
2023-02-08T15:59:09.145Z,100419.94
2023-02-08T16:02:34.594Z,100420.41
2023-02-08T16:05:38.494Z,100418.00
2023-02-08T16:08:44.201Z,100419.16
2023-02-08T16:11:50.267Z,100424.22
2023-02-08T16:14:56.885Z,100424.13
2023-02-08T16:17:59.734Z,100430.94
2023-02-08T16:21:04.909Z,100420.78
2023-02-08T16:24:21.784Z,100437.44
2023-02-08T16:27:30.175Z,100433.22
2023-02-08T16:30:33.454Z,100441.91
2023-02-08T16:33:37.575Z,100455.00
2023-02-08T16:36:45.826Z,100449.16
2023-02-08T16:39:57.114Z,100450.94
2023-02-08T16:43:20.122Z,100451.91
2023-02-08T16:46:24.793Z,100444.19
2023-02-08T16:49:30.225Z,100452.88
2023-02-08T16:52:33.281Z,100456.38
2023-02-08T16:55:37.243Z,100458.00
2023-02-08T16:58:40.407Z,100451.16
2023-02-08T17:01:48.618Z,100455.47
2023-02-08T17:04:54.882Z,100451.25
2023-02-08T17:07:58.657Z,100443.53
2023-02-08T17:11:01.606Z,100448.75
2023-02-08T17:14:07.890Z,100448.75
2023-02-08T17:17:10.769Z,100459.03
2023-02-08T17:20:21.188Z,100451.25
2023-02-08T17:23:23.949Z,100459.84
2023-02-08T17:26:34.329Z,100459.00
2023-02-08T17:29:37.389Z,100455.56
2023-02-08T17:32:40.524Z,100458.25
2023-02-08T17:35:44.350Z,100457.44
2023-02-08T17:38:47.637Z,100456.59
2023-02-08T17:41:50.386Z,100458.31
2023-02-08T17:44:53.041Z,100463.47
2023-02-08T17:47:56.669Z,100477.16
2023-02-08T17:50:59.544Z,100472.00
2023-02-08T17:54:06.806Z,100477.13
2023-02-08T17:57:11.420Z,100478.91
2023-02-08T18:00:18.863Z,100487.47
2023-02-08T18:03:21.656Z,100487.47
2023-02-08T18:06:25.338Z,100477.19
2023-02-08T18:09:28.711Z,100479.78
2023-02-08T18:12:31.705Z,100478.91
2023-02-08T18:15:34.692Z,100477.19
2023-02-08T18:18:38.001Z,100485.75
2023-02-08T18:21:41.051Z,100487.47
2023-02-08T18:24:43.992Z,100490.88
2023-02-08T18:27:46.939Z,100492.59
2023-02-08T18:30:50.527Z,100480.63
2023-02-08T18:33:54.656Z,100494.28
2023-02-08T18:36:57.556Z,100486.59
2023-02-08T18:40:00.963Z,100490.84
2023-02-08T18:43:03.842Z,100485.75
2023-02-08T18:46:12.401Z,100490.84
2023-02-08T18:49:17.047Z,100493.38
2023-02-08T18:52:19.985Z,100483.16
2023-02-08T18:55:24.610Z,100484.91
2023-02-08T18:58:28.029Z,100482.31
2023-02-08T19:01:31.080Z,100484.88
2023-02-08T19:04:40.667Z,100491.72
2023-02-08T19:07:43.740Z,100484.88
2023-02-08T19:10:46.540Z,100490.00
2023-02-08T19:13:50.242Z,100489.09
2023-02-08T19:16:52.961Z,100485.63
2023-02-08T19:19:56.328Z,100481.34
2023-02-08T19:22:59.717Z,100478.75
2023-02-08T19:26:08.450Z,100472.66
2023-02-08T19:29:15.143Z,100481.19
2023-02-08T19:32:18.098Z,100474.41
2023-02-08T19:35:22.180Z,100471.88
2023-02-08T19:38:25.168Z,100477.81
2023-02-08T19:41:32.537Z,100479.56
2023-02-08T19:44:35.420Z,100470.19
2023-02-08T19:47:50.725Z,100477.00
2023-02-08T19:50:59.144Z,100470.16
2023-02-08T19:54:07.096Z,100476.13
2023-02-08T19:57:12.388Z,100467.50
2023-02-08T20:00:23.514Z,100465.75
2023-02-08T20:03:27.121Z,100464.03
2023-02-08T20:06:33.147Z,100467.41
2023-02-08T20:09:36.402Z,100463.22
2023-02-08T20:12:39.491Z,100466.66
2023-02-08T20:15:43.961Z,100478.75
2023-02-08T20:18:47.592Z,100479.59
2023-02-08T20:21:51.718Z,100477.00
2023-02-08T20:24:55.251Z,100478.75
2023-02-08T20:27:58.301Z,100482.09
2023-02-08T20:31:02.037Z,100483.69
2023-02-08T20:34:07.814Z,100483.63
2023-02-08T20:37:10.856Z,100487.00
2023-02-08T20:40:14.975Z,100484.44
2023-02-08T20:43:20.717Z,100481.88
2023-02-08T20:46:32.243Z,100486.94
2023-02-08T20:49:35.347Z,100488.63
2023-02-08T20:52:38.028Z,100491.28
2023-02-08T20:55:41.801Z,100487.88
2023-02-08T20:58:49.370Z,100480.16
2023-02-08T21:01:52.719Z,100476.78
2023-02-08T21:04:55.633Z,100478.50
2023-02-08T21:07:58.675Z,100471.63
2023-02-08T21:11:02.624Z,100478.41
2023-02-08T21:14:06.606Z,100479.22
2023-02-08T21:17:10.982Z,100483.31
2023-02-08T21:20:18.053Z,100482.31
2023-02-08T21:23:20.837Z,100485.78
2023-02-08T21:26:25.066Z,100489.97
2023-02-08T21:29:29.505Z,100478.03
2023-02-08T21:32:32.225Z,100483.28
2023-02-08T21:35:38.651Z,100485.91
2023-02-08T21:38:42.018Z,100478.25
2023-02-08T21:41:44.635Z,100475.75
2023-02-08T21:44:47.280Z,100474.88
2023-02-08T21:47:49.899Z,100474.91
2023-02-08T21:51:11.062Z,100472.34
2023-02-08T21:54:35.295Z,100462.09
2023-02-08T21:57:41.276Z,100467.09
2023-02-08T22:00:44.146Z,100469.69
2023-02-08T22:03:46.939Z,100461.06
2023-02-08T22:06:49.622Z,100459.44
2023-02-08T22:09:53.036Z,100459.50
2023-02-08T22:12:56.105Z,100460.44
2023-02-08T22:15:59.658Z,100443.47
2023-02-08T22:19:02.550Z,100458.00
2023-02-08T22:22:05.185Z,100451.97
2023-02-08T22:25:08.108Z,100456.22
2023-02-08T22:28:10.809Z,100451.81
2023-02-08T22:31:15.412Z,100452.59
2023-02-08T22:34:18.162Z,100454.22
2023-02-08T22:37:20.806Z,100445.63
2023-02-08T22:40:23.405Z,100458.34
2023-02-08T22:43:25.977Z,100448.94
2023-02-08T22:46:28.722Z,100452.13
2023-02-08T22:49:31.403Z,100447.69
2023-02-08T22:52:34.976Z,100439.06
2023-02-08T22:55:37.608Z,100442.56
2023-02-08T22:58:40.421Z,100443.47
2023-02-08T23:01:58.492Z,100439.34
2023-02-08T23:05:01.201Z,100441.91
2023-02-08T23:08:03.937Z,100436.03
2023-02-08T23:11:07.541Z,100431.69
2023-02-08T23:14:10.560Z,100424.81
2023-02-08T23:17:13.221Z,100432.63
2023-02-08T23:20:15.903Z,100420.56
2023-02-08T23:23:19.258Z,100431.13
2023-02-08T23:26:22.484Z,100432.91
2023-02-08T23:29:25.482Z,100434.66
2023-02-08T23:32:28.110Z,100432.72
2023-02-08T23:35:32.041Z,100429.59
2023-02-08T23:38:35.533Z,100431.38
2023-02-08T23:41:38.392Z,100427.97
2023-02-08T23:44:41.098Z,100419.28
2023-02-08T23:47:43.807Z,100413.31
2023-02-08T23:50:46.718Z,100411.28
2023-02-08T23:53:50.475Z,100413.94
2023-02-08T23:56:53.314Z,100405.53
2023-02-08T23:59:55.864Z,100405.63
